createdAt,value
2019-03-23T00:02:27.983Z,12.47
2019-03-23T00:05:01.230Z,13.67
2019-03-23T00:07:34.809Z,14.83
2019-03-23T00:10:08.947Z,14.63
2019-03-23T00:12:42.123Z,15.57
2019-03-23T00:15:17.658Z,17.77
2019-03-23T00:17:50.892Z,17.73
2019-03-23T00:20:24.357Z,16.90
2019-03-23T00:22:57.869Z,17.53
2019-03-23T00:25:31.314Z,15.93
2019-03-23T00:28:04.559Z,17.03
2019-03-23T00:30:38.007Z,16.00
2019-03-23T00:33:11.440Z,15.57
2019-03-23T00:35:44.645Z,15.03
2019-03-23T00:38:17.938Z,15.93
2019-03-23T00:40:52.499Z,16.13
2019-03-23T00:43:25.919Z,16.03
2019-03-23T00:45:59.331Z,16.33
2019-03-23T00:48:32.616Z,16.80
2019-03-23T00:51:05.945Z,15.93
2019-03-23T00:53:39.315Z,15.73
2019-03-23T00:56:12.597Z,16.13
2019-03-23T00:58:45.987Z,15.97
2019-03-23T01:01:19.284Z,15.60
2019-03-23T01:03:52.698Z,17.40
2019-03-23T01:06:26.012Z,16.17
2019-03-23T01:09:00.521Z,18.13
2019-03-23T01:11:34.039Z,16.67
2019-03-23T01:14:07.484Z,17.87
2019-03-23T01:16:40.921Z,17.80
2019-03-23T01:19:14.478Z,17.07
2019-03-23T01:21:48.007Z,17.30
2019-03-23T01:24:21.404Z,17.73
2019-03-23T01:26:54.978Z,17.53
2019-03-23T01:29:28.371Z,17.33
2019-03-23T01:32:01.672Z,17.70
2019-03-23T01:34:35.172Z,17.60
2019-03-23T01:37:08.768Z,17.37
2019-03-23T01:39:42.006Z,17.63
2019-03-23T01:42:15.699Z,17.40
2019-03-23T01:44:49.259Z,17.23
2019-03-23T01:47:22.915Z,18.80
2019-03-23T01:49:56.473Z,16.40
2019-03-23T01:52:29.706Z,17.47
2019-03-23T01:55:08.185Z,18.13
2019-03-23T01:57:41.837Z,16.43
2019-03-23T02:00:15.709Z,17.47
2019-03-23T02:02:48.906Z,17.57
2019-03-23T02:05:22.180Z,18.20
2019-03-23T02:07:55.610Z,16.67
2019-03-23T02:10:29.109Z,21.07
2019-03-23T02:13:02.494Z,21.40
2019-03-23T02:15:35.788Z,19.87
2019-03-23T02:18:09.160Z,19.43
2019-03-23T02:20:42.528Z,18.20
2019-03-23T02:23:15.775Z,18.43
2019-03-23T02:25:49.442Z,17.13
2019-03-23T02:28:23.039Z,16.50
2019-03-23T02:30:56.569Z,16.17
2019-03-23T02:33:30.045Z,17.80
2019-03-23T02:36:03.272Z,17.93
2019-03-23T02:38:36.551Z,17.80
2019-03-23T02:41:09.750Z,15.73
2019-03-23T02:43:43.423Z,17.67
2019-03-23T02:46:16.717Z,16.73
2019-03-23T02:48:50.011Z,15.50
2019-03-23T02:51:23.235Z,17.33
2019-03-23T02:53:56.704Z,17.10
2019-03-23T02:56:30.141Z,18.27
2019-03-23T02:59:03.908Z,18.37
2019-03-23T03:01:37.577Z,17.77
2019-03-23T03:04:10.919Z,18.37
2019-03-23T03:06:44.482Z,17.13
2019-03-23T03:09:18.007Z,17.10
2019-03-23T03:11:51.504Z,17.27
2019-03-23T03:14:25.314Z,17.13
2019-03-23T03:16:58.605Z,17.67
2019-03-23T03:19:32.226Z,16.53
2019-03-23T03:22:05.809Z,16.43
2019-03-23T03:24:39.092Z,16.87
2019-03-23T03:27:12.321Z,16.57
2019-03-23T03:29:46.070Z,15.23
2019-03-23T03:32:19.533Z,17.67
2019-03-23T03:34:53.319Z,17.87
2019-03-23T03:37:26.791Z,16.13
2019-03-23T03:40:00.022Z,15.47
2019-03-23T03:42:33.379Z,16.57
2019-03-23T03:45:06.670Z,16.03
2019-03-23T03:47:41.432Z,16.30
2019-03-23T03:50:15.112Z,16.97
2019-03-23T03:52:48.535Z,17.43
2019-03-23T03:55:21.900Z,16.63
2019-03-23T03:57:55.252Z,16.37
2019-03-23T04:00:28.571Z,18.20
2019-03-23T04:03:01.813Z,16.00
2019-03-23T04:05:35.384Z,16.47
2019-03-23T04:08:11.520Z,17.47
2019-03-23T04:10:43.932Z,17.13
2019-03-23T04:13:17.761Z,17.10
2019-03-23T04:15:51.240Z,16.27
2019-03-23T04:18:24.516Z,16.87
2019-03-23T04:20:58.011Z,16.80
2019-03-23T04:23:31.701Z,16.40
2019-03-23T04:26:05.244Z,16.80
2019-03-23T04:28:38.710Z,17.17
2019-03-23T04:31:12.284Z,16.80
2019-03-23T04:33:45.617Z,16.77
2019-03-23T04:36:19.038Z,16.57
2019-03-23T04:38:52.180Z,17.10
2019-03-23T04:41:25.570Z,16.63
2019-03-23T04:43:59.205Z,16.97
2019-03-23T04:46:32.482Z,16.43
2019-03-23T04:49:06.071Z,18.30
2019-03-23T04:51:39.374Z,16.40
2019-03-23T04:54:12.756Z,16.87
2019-03-23T04:56:46.069Z,16.30
2019-03-23T04:59:19.272Z,15.33
2019-03-23T05:01:52.561Z,16.00
2019-03-23T05:04:28.579Z,16.80
2019-03-23T05:07:01.850Z,17.27
2019-03-23T05:09:35.295Z,17.47
2019-03-23T05:12:08.699Z,16.30
2019-03-23T05:14:42.078Z,18.57
2019-03-23T05:17:15.507Z,18.13
2019-03-23T05:19:48.924Z,16.50
2019-03-23T05:22:22.110Z,17.43
2019-03-23T05:24:55.361Z,21.40
2019-03-23T05:27:28.973Z,21.33
2019-03-23T05:30:02.351Z,23.03
2019-03-23T05:32:35.626Z,20.00
2019-03-23T05:35:09.354Z,21.37
2019-03-23T05:37:42.618Z,20.90
2019-03-23T05:40:15.892Z,20.23
2019-03-23T05:42:49.133Z,17.30
2019-03-23T05:45:22.628Z,17.23
2019-03-23T05:47:55.833Z,17.13
2019-03-23T05:50:29.246Z,16.90
2019-03-23T05:53:02.549Z,16.63
2019-03-23T05:55:36.020Z,17.27
2019-03-23T05:58:09.359Z,18.63
2019-03-23T06:00:42.875Z,18.10
2019-03-23T06:03:16.162Z,19.47
2019-03-23T06:05:49.871Z,19.00
2019-03-23T06:08:23.157Z,19.27
2019-03-23T06:10:56.735Z,20.60
2019-03-23T06:13:29.953Z,20.27
2019-03-23T06:16:03.228Z,21.73
2019-03-23T06:18:36.710Z,23.23
2019-03-23T06:21:10.088Z,22.20
2019-03-23T06:23:43.627Z,23.33
2019-03-23T06:26:16.948Z,24.30
2019-03-23T06:28:50.335Z,24.03
2019-03-23T06:31:23.982Z,23.57
2019-03-23T06:33:57.206Z,24.47
2019-03-23T06:36:30.494Z,24.67
2019-03-23T06:39:05.764Z,26.30
2019-03-23T06:41:39.349Z,25.00
2019-03-23T06:44:12.549Z,25.53
2019-03-23T06:46:45.914Z,29.13
2019-03-23T06:49:20.267Z,28.03
2019-03-23T06:51:53.957Z,28.07
2019-03-23T06:54:27.585Z,28.90
2019-03-23T06:57:00.926Z,29.07
2019-03-23T06:59:36.439Z,25.17
2019-03-23T07:02:09.999Z,28.60
2019-03-23T07:04:43.213Z,26.77
2019-03-23T07:07:16.563Z,26.87
2019-03-23T07:09:49.681Z,27.07
2019-03-23T07:12:23.051Z,28.93
2019-03-23T07:14:56.311Z,27.80
2019-03-23T07:17:29.778Z,28.23
2019-03-23T07:20:03.149Z,26.90
2019-03-23T07:22:36.791Z,27.67
2019-03-23T07:25:11.410Z,28.32
2019-03-23T07:27:44.712Z,29.95
2019-03-23T07:30:18.979Z,30.03
2019-03-23T07:32:52.296Z,31.42
2019-03-23T07:35:25.776Z,35.92
2019-03-23T07:37:59.186Z,33.08
2019-03-23T07:40:32.501Z,33.53
2019-03-23T07:43:06.020Z,34.30
2019-03-23T07:45:39.363Z,33.70
2019-03-23T07:48:12.780Z,34.40
2019-03-23T07:50:46.071Z,35.40
2019-03-23T07:53:20.575Z,36.23
2019-03-23T07:55:54.182Z,38.08
2019-03-23T07:58:27.657Z,37.17
2019-03-23T08:01:19.497Z,35.70
2019-03-23T08:03:52.829Z,37.05
2019-03-23T08:06:26.120Z,38.95
2019-03-23T08:09:00.854Z,36.28
2019-03-23T08:11:34.131Z,38.02
2019-03-23T08:14:07.802Z,37.80
2019-03-23T08:16:41.291Z,36.90
2019-03-23T08:19:15.492Z,39.70
2019-03-23T08:21:49.069Z,38.23
2019-03-23T08:24:22.888Z,37.67
2019-03-23T08:26:56.170Z,38.45
2019-03-23T08:29:40.051Z,39.73
2019-03-23T08:32:13.793Z,37.93
2019-03-23T08:34:47.351Z,37.23
2019-03-23T08:37:20.638Z,37.75
2019-03-23T08:39:54.498Z,37.45
2019-03-23T08:42:27.856Z,35.17
2019-03-23T08:45:01.229Z,41.60
2019-03-23T08:47:34.634Z,35.80
2019-03-23T08:50:08.047Z,37.38
2019-03-23T08:52:41.331Z,36.33
2019-03-23T08:55:17.287Z,39.90
2019-03-23T08:57:50.645Z,36.95
2019-03-23T09:00:24.076Z,38.30
2019-03-23T09:02:57.939Z,35.35
2019-03-23T09:05:31.273Z,36.42
2019-03-23T09:08:05.287Z,37.63
2019-03-23T09:10:38.843Z,37.30
2019-03-23T09:13:12.136Z,37.05
2019-03-23T09:15:45.571Z,34.05
2019-03-23T09:18:19.320Z,35.00
2019-03-23T09:20:53.874Z,35.48
2019-03-23T09:23:27.280Z,31.87
2019-03-23T09:26:00.550Z,35.03
2019-03-23T09:28:33.805Z,40.30
2019-03-23T09:31:07.139Z,39.00
2019-03-23T09:33:40.818Z,36.20
2019-03-23T09:36:14.121Z,41.50
2019-03-23T09:38:47.308Z,37.88
2019-03-23T09:41:20.704Z,39.58
2019-03-23T09:43:54.294Z,40.08
2019-03-23T09:46:27.607Z,39.33
2019-03-23T09:49:01.027Z,41.95
2019-03-23T09:51:34.257Z,41.20
2019-03-23T09:54:08.104Z,36.25
2019-03-23T09:56:41.392Z,35.58
2019-03-23T09:59:14.608Z,37.08
2019-03-23T10:01:48.112Z,37.10
2019-03-23T10:04:21.362Z,34.85
2019-03-23T10:06:54.791Z,34.43
2019-03-23T10:09:27.967Z,35.85
2019-03-23T10:12:01.739Z,36.53
2019-03-23T10:14:35.340Z,35.98
2019-03-23T10:17:08.536Z,36.88
2019-03-23T10:19:41.750Z,34.43
2019-03-23T10:22:15.457Z,37.67
2019-03-23T10:24:48.637Z,36.77
2019-03-23T10:27:22.045Z,37.33
2019-03-23T10:29:55.464Z,35.08
2019-03-23T10:32:28.893Z,34.58
2019-03-23T10:35:02.353Z,31.95
2019-03-23T10:37:35.834Z,32.93
2019-03-23T10:40:09.443Z,35.50
2019-03-23T10:42:43.574Z,34.50
2019-03-23T10:45:18.079Z,32.53
2019-03-23T10:47:51.525Z,31.80
2019-03-23T10:50:24.755Z,29.48
2019-03-23T10:52:58.226Z,29.45
2019-03-23T10:55:31.531Z,31.05
2019-03-23T10:58:05.072Z,29.60
2019-03-23T11:00:38.773Z,30.37
2019-03-23T11:03:12.453Z,31.17
2019-03-23T11:05:46.063Z,33.48
2019-03-23T11:08:19.653Z,33.38
2019-03-23T11:10:53.259Z,35.52
2019-03-23T11:13:26.773Z,37.20
2019-03-23T11:16:00.301Z,40.83
2019-03-23T11:18:33.574Z,28.10
2019-03-23T11:21:07.102Z,29.25
2019-03-23T11:23:40.589Z,28.62
2019-03-23T11:26:14.181Z,31.37
2019-03-23T11:28:47.754Z,28.98
2019-03-23T11:31:21.295Z,27.22
2019-03-23T11:33:54.652Z,28.90
2019-03-23T11:36:28.075Z,28.30
2019-03-23T11:39:01.521Z,28.80
2019-03-23T11:41:34.870Z,26.90
2019-03-23T11:44:08.377Z,26.60
2019-03-23T11:46:42.741Z,26.40
2019-03-23T11:49:16.257Z,25.20
2019-03-23T11:51:49.443Z,19.05
2019-03-23T11:54:24.278Z,16.73
2019-03-23T11:56:58.078Z,17.15
2019-03-23T11:59:31.850Z,14.95
2019-03-23T12:02:05.256Z,9.60
2019-03-23T12:04:38.759Z,12.78
2019-03-23T12:07:12.220Z,10.35
2019-03-23T12:09:45.960Z,8.63
2019-03-23T12:12:19.344Z,10.35
2019-03-23T12:14:52.631Z,11.53
2019-03-23T12:17:26.200Z,11.70
2019-03-23T12:19:59.669Z,6.33
2019-03-23T12:22:33.042Z,8.45
2019-03-23T12:25:07.484Z,8.70
2019-03-23T12:27:40.815Z,10.48
2019-03-23T12:30:16.403Z,9.18
2019-03-23T12:32:50.043Z,8.90
2019-03-23T12:35:23.359Z,8.55
2019-03-23T12:37:56.753Z,10.18
2019-03-23T12:40:30.040Z,8.40
2019-03-23T12:43:03.719Z,7.95
2019-03-23T12:45:38.822Z,12.60
2019-03-23T12:48:12.229Z,12.40
2019-03-23T12:50:46.318Z,12.50
2019-03-23T12:53:19.613Z,9.20
2019-03-23T12:55:52.938Z,8.90
2019-03-23T12:58:26.141Z,9.60
2019-03-23T13:00:59.429Z,8.78
2019-03-23T13:03:32.626Z,8.78
2019-03-23T13:06:06.161Z,9.53
2019-03-23T13:08:39.537Z,9.35
2019-03-23T13:11:19.468Z,9.13
2019-03-23T13:13:47.741Z,9.48
2019-03-23T13:16:21.098Z,11.28
2019-03-23T13:18:54.551Z,8.85
2019-03-23T13:21:28.437Z,7.97
2019-03-23T13:24:01.896Z,8.45
2019-03-23T13:26:36.573Z,6.22
2019-03-23T13:29:09.796Z,6.47
2019-03-23T13:31:43.695Z,6.40
2019-03-23T13:34:17.318Z,8.38
2019-03-23T13:36:50.585Z,6.78
2019-03-23T13:39:23.883Z,6.70
2019-03-23T13:41:57.184Z,7.90
2019-03-23T13:44:30.790Z,8.93
2019-03-23T13:47:04.189Z,6.85
2019-03-23T13:49:37.527Z,6.00
2019-03-23T13:52:10.732Z,6.90
2019-03-23T13:54:43.995Z,7.87
2019-03-23T13:57:17.475Z,7.65
2019-03-23T13:59:50.874Z,8.15
2019-03-23T14:02:24.314Z,10.48
2019-03-23T14:04:57.713Z,9.90
2019-03-23T14:07:31.199Z,9.18
2019-03-23T14:10:04.522Z,9.85
2019-03-23T14:12:37.855Z,8.93
2019-03-23T14:15:11.565Z,9.93
2019-03-23T14:17:44.799Z,10.35
2019-03-23T14:20:18.251Z,9.63
2019-03-23T14:22:51.691Z,13.25
2019-03-23T14:25:24.985Z,12.18
2019-03-23T14:27:58.647Z,23.45
2019-03-23T14:30:32.748Z,16.07
2019-03-23T14:33:06.043Z,8.15
2019-03-23T14:35:39.503Z,9.03
2019-03-23T14:38:12.753Z,11.05
2019-03-23T14:40:46.183Z,10.35
2019-03-23T14:43:19.460Z,8.90
2019-03-23T14:45:53.055Z,9.20
2019-03-23T14:48:26.448Z,9.00
2019-03-23T14:50:59.871Z,9.08
2019-03-23T14:53:33.184Z,8.05
2019-03-23T14:56:06.387Z,7.08
2019-03-23T14:58:39.868Z,7.62
2019-03-23T15:01:13.323Z,7.03
2019-03-23T15:03:46.872Z,7.53
2019-03-23T15:06:20.381Z,9.78
2019-03-23T15:08:53.861Z,7.37
2019-03-23T15:11:27.265Z,6.75
2019-03-23T15:14:00.536Z,7.28
2019-03-23T15:16:34.076Z,7.13
2019-03-23T15:19:07.408Z,7.05
2019-03-23T15:21:40.737Z,7.12
2019-03-23T15:24:14.089Z,7.33
2019-03-23T15:26:47.458Z,6.87
2019-03-23T15:29:21.188Z,7.75
2019-03-23T15:31:54.526Z,7.47
2019-03-23T15:34:27.909Z,7.05
2019-03-23T15:37:01.336Z,8.13
2019-03-23T15:39:34.663Z,8.00
2019-03-23T15:42:08.025Z,7.00
2019-03-23T15:44:41.332Z,7.47
2019-03-23T15:47:14.766Z,7.53
2019-03-23T15:49:48.043Z,8.88
2019-03-23T15:52:22.163Z,10.57
2019-03-23T15:54:55.355Z,11.65
2019-03-23T15:57:29.232Z,9.98
2019-03-23T16:00:02.638Z,8.10
2019-03-23T16:02:36.013Z,15.95
2019-03-23T16:05:10.044Z,11.90
2019-03-23T16:07:43.314Z,10.20
2019-03-23T16:10:16.858Z,8.18
2019-03-23T16:12:50.256Z,8.65
2019-03-23T16:15:23.868Z,7.90
2019-03-23T16:17:57.223Z,7.53
2019-03-23T16:20:30.651Z,7.70
2019-03-23T16:23:03.905Z,8.13
2019-03-23T16:25:37.495Z,8.13
2019-03-23T16:28:11.085Z,8.33
2019-03-23T16:30:44.696Z,7.40
2019-03-23T16:33:17.928Z,7.33
2019-03-23T16:35:51.848Z,20.33
2019-03-23T16:38:25.039Z,12.63
2019-03-23T16:40:58.583Z,8.13
2019-03-23T16:43:31.920Z,6.70
2019-03-23T16:46:05.286Z,7.03
2019-03-23T16:48:38.512Z,8.10
2019-03-23T16:51:11.842Z,7.40
2019-03-23T16:53:45.359Z,6.60
2019-03-23T16:56:18.685Z,9.30
2019-03-23T16:58:52.539Z,9.83
2019-03-23T17:01:26.278Z,8.30
2019-03-23T17:03:59.698Z,9.33
2019-03-23T17:06:33.879Z,8.50
2019-03-23T17:09:08.013Z,9.27
2019-03-23T17:11:41.728Z,8.30
2019-03-23T17:14:15.185Z,7.67
2019-03-23T17:16:48.644Z,7.13
2019-03-23T17:19:22.050Z,7.33
2019-03-23T17:21:56.138Z,7.50
2019-03-23T17:24:29.523Z,6.93
2019-03-23T17:27:03.035Z,7.67
2019-03-23T17:29:36.387Z,8.37
2019-03-23T17:32:10.200Z,8.13
2019-03-23T17:34:43.554Z,9.73
2019-03-23T17:37:16.864Z,9.87
2019-03-23T17:39:50.204Z,9.40
2019-03-23T17:42:23.927Z,11.37
2019-03-23T17:44:57.268Z,8.73
2019-03-23T17:47:30.748Z,9.87
2019-03-23T17:50:04.319Z,8.53
2019-03-23T17:52:37.818Z,11.03
2019-03-23T17:55:12.029Z,9.07
2019-03-23T17:57:45.743Z,8.63
2019-03-23T18:00:19.946Z,8.40
2019-03-23T18:02:53.458Z,8.30
2019-03-23T18:05:26.919Z,8.63
2019-03-23T18:08:00.238Z,8.37
2019-03-23T18:10:33.696Z,8.73
2019-03-23T18:13:16.173Z,8.87
2019-03-23T18:15:43.078Z,7.80
2019-03-23T18:18:17.012Z,8.13
2019-03-23T18:20:50.758Z,7.33
2019-03-23T18:23:24.114Z,7.77
2019-03-23T18:25:57.797Z,7.83
2019-03-23T18:28:31.278Z,8.60
2019-03-23T18:31:05.016Z,8.70
2019-03-23T18:33:38.287Z,8.70
2019-03-23T18:36:12.503Z,7.83
2019-03-23T18:38:45.881Z,8.50
2019-03-23T18:41:19.238Z,9.07
2019-03-23T18:43:52.739Z,10.70
2019-03-23T18:46:26.237Z,11.10
2019-03-23T18:49:00.193Z,9.43
2019-03-23T18:51:33.401Z,7.67
2019-03-23T18:54:07.000Z,8.73
2019-03-23T18:56:40.416Z,17.20
2019-03-23T18:59:13.793Z,9.60
2019-03-23T19:01:47.227Z,9.03
2019-03-23T19:04:20.783Z,9.53
2019-03-23T19:06:54.173Z,9.10
2019-03-23T19:09:27.707Z,10.50
2019-03-23T19:12:01.647Z,9.53
2019-03-23T19:14:35.066Z,9.73
2019-03-23T19:17:08.542Z,9.43
2019-03-23T19:19:42.486Z,11.30
2019-03-23T19:22:16.170Z,13.57
2019-03-23T19:24:50.144Z,13.30
2019-03-23T19:27:23.712Z,11.27
2019-03-23T19:29:57.273Z,11.13
2019-03-23T19:32:30.742Z,10.43
2019-03-23T19:35:04.967Z,10.47
2019-03-23T19:37:38.966Z,10.17
2019-03-23T19:40:12.915Z,14.60
2019-03-23T19:42:46.277Z,11.97
2019-03-23T19:45:19.802Z,10.47
2019-03-23T19:47:53.863Z,11.73
2019-03-23T19:50:27.318Z,13.10
2019-03-23T19:53:00.926Z,15.50
2019-03-23T19:55:34.278Z,12.00
2019-03-23T19:58:07.617Z,11.67
2019-03-23T20:00:40.838Z,13.00
2019-03-23T20:03:14.195Z,11.90
2019-03-23T20:05:47.732Z,10.73
2019-03-23T20:08:21.176Z,10.80
2019-03-23T20:10:54.704Z,12.70
2019-03-23T20:13:28.458Z,9.87
2019-03-23T20:16:01.984Z,11.37
2019-03-23T20:18:35.945Z,11.50
2019-03-23T20:21:12.122Z,10.87
2019-03-23T20:23:45.574Z,10.87
2019-03-23T20:26:18.855Z,12.70
2019-03-23T20:28:52.303Z,11.43
2019-03-23T20:31:25.696Z,11.80
2019-03-23T20:33:59.197Z,12.93
2019-03-23T20:36:32.511Z,11.97
2019-03-23T20:39:07.790Z,12.40
2019-03-23T20:41:41.470Z,12.00
2019-03-23T20:44:15.231Z,11.90
2019-03-23T20:46:48.825Z,15.27
2019-03-23T20:49:22.643Z,13.10
2019-03-23T20:51:56.787Z,18.23
2019-03-23T20:54:30.712Z,17.47
2019-03-23T20:57:04.175Z,16.20
2019-03-23T20:59:37.488Z,12.47
2019-03-23T21:02:11.879Z,11.73
2019-03-23T21:04:45.358Z,11.10
2019-03-23T21:07:18.836Z,11.37
2019-03-23T21:09:52.410Z,11.80
2019-03-23T21:12:27.321Z,12.30
2019-03-23T21:15:01.358Z,12.00
2019-03-23T21:17:34.669Z,12.40
2019-03-23T21:20:08.514Z,12.57
2019-03-23T21:22:41.820Z,14.60
2019-03-23T21:25:15.506Z,14.47
2019-03-23T21:27:48.929Z,13.50
2019-03-23T21:30:22.912Z,12.10
2019-03-23T21:32:56.464Z,12.87
2019-03-23T21:35:29.758Z,14.57
2019-03-23T21:38:03.781Z,12.80
2019-03-23T21:40:37.144Z,12.90
2019-03-23T21:43:11.025Z,13.80
2019-03-23T21:45:47.684Z,12.30
2019-03-23T21:48:22.330Z,12.03
2019-03-23T21:50:55.853Z,13.47
2019-03-23T21:53:32.053Z,11.97
2019-03-23T21:56:07.372Z,12.87
2019-03-23T21:58:40.647Z,13.20
2019-03-23T22:01:14.286Z,12.67
2019-03-23T22:03:47.615Z,14.77
2019-03-23T22:06:24.351Z,14.27
2019-03-23T22:09:00.350Z,12.47
2019-03-23T22:11:33.750Z,13.13
2019-03-23T22:14:07.198Z,12.37
2019-03-23T22:16:41.106Z,11.10
2019-03-23T22:19:15.016Z,14.00
2019-03-23T22:21:48.233Z,16.40
2019-03-23T22:24:21.570Z,18.87
2019-03-23T22:26:55.407Z,16.30
2019-03-23T22:29:28.653Z,14.00
2019-03-23T22:32:02.208Z,13.87
2019-03-23T22:34:36.141Z,15.13
2019-03-23T22:37:09.650Z,13.93
2019-03-23T22:39:43.151Z,13.90
2019-03-23T22:42:16.523Z,11.93
2019-03-23T22:44:52.787Z,13.00
2019-03-23T22:47:25.484Z,12.20
2019-03-23T22:49:58.764Z,11.90
2019-03-23T22:52:32.226Z,11.17
2019-03-23T22:55:05.847Z,11.20
2019-03-23T22:57:39.538Z,10.63
2019-03-23T23:00:18.490Z,11.73
2019-03-23T23:02:52.122Z,10.70
2019-03-23T23:05:25.404Z,10.97
2019-03-23T23:07:58.723Z,10.77
2019-03-23T23:10:32.455Z,10.77
2019-03-23T23:13:05.800Z,10.83
2019-03-23T23:15:39.085Z,14.73
2019-03-23T23:18:12.686Z,13.67
2019-03-23T23:20:46.016Z,12.33
2019-03-23T23:23:19.609Z,11.83
2019-03-23T23:25:53.146Z,11.73
2019-03-23T23:28:26.347Z,11.67
2019-03-23T23:30:59.815Z,10.57
2019-03-23T23:33:33.068Z,10.90
2019-03-23T23:36:06.634Z,10.43
2019-03-23T23:38:40.093Z,11.67
2019-03-23T23:41:13.278Z,11.53
2019-03-23T23:43:46.692Z,10.40
2019-03-23T23:46:21.052Z,11.07
2019-03-23T23:48:54.635Z,12.10
2019-03-23T23:51:27.985Z,11.33
2019-03-23T23:54:01.269Z,11.03
2019-03-23T23:56:34.666Z,12.37
2019-03-23T23:59:08.069Z,11.83
